Time;durP1;ratioP1;P1;durP2;ratioP2;P2;SDS_P1;SDS_P2;PMS_P1;PMS_P2;Temp;Humidity;BMP_temperature;BMP_pressure;BME280_temperature;BME280_humidity;BME280_pressure;Samples;Min_cycle;Max_cycle;Signal;HPM_P1;HPM_P2
2022/12/09 00:00:24;;;;;;;30.52;17.05;;;;;;;1.29;100.00;100599.22;5050323;28;20021;-66
2022/12/09 00:02:50;;;;;;;32.90;19.90;;;;;;;1.31;100.00;100600.72;5048896;28;20476;-66
2022/12/09 00:05:16;;;;;;;37.42;19.77;;;;;;;1.31;100.00;100597.28;5050257;28;20037;-65
2022/12/09 00:07:41;;;;;;;32.97;19.15;;;;;;;1.33;100.00;100594.50;5050309;28;20387;-66
2022/12/09 00:10:07;;;;;;;32.50;21.35;;;;;;;1.27;100.00;100596.72;5049766;28;20041;-66
2022/12/09 00:12:32;;;;;;;36.78;20.10;;;;;;;1.34;100.00;100599.63;5050152;28;20037;-66
2022/12/09 00:14:58;;;;;;;36.13;19.15;;;;;;;1.35;100.00;100600.44;5050167;28;20110;-65
2022/12/09 00:17:23;;;;;;;36.05;19.27;;;;;;;1.37;100.00;100590.63;5048758;28;20032;-66
2022/12/09 00:19:48;;;;;;;32.97;17.90;;;;;;;1.36;100.00;100595.03;5050240;28;20032;-66
2022/12/09 00:22:14;;;;;;;33.80;20.60;;;;;;;1.36;100.00;100595.03;5049976;28;20033;-66
2022/12/09 00:24:39;;;;;;;31.20;19.80;;;;;;;1.37;100.00;100595.88;5049984;28;20142;-66
2022/12/09 00:27:04;;;;;;;32.35;18.70;;;;;;;1.39;100.00;100593.91;5050008;28;20037;-66
2022/12/09 00:29:29;;;;;;;33.47;19.20;;;;;;;1.35;100.00;100584.69;5048591;28;20036;-65
2022/12/09 00:31:55;;;;;;;34.15;19.88;;;;;;;1.38;100.00;100592.28;5050053;28;20037;-66
2022/12/09 00:34:21;;;;;;;33.35;19.95;;;;;;;1.34;100.00;100581.22;5049666;28;20112;-66
2022/12/09 00:36:46;;;;;;;35.72;20.75;;;;;;;1.35;100.00;100593.38;5049500;28;20124;-66
2022/12/09 00:39:11;;;;;;;39.20;21.05;;;;;;;1.37;100.00;100598.50;5049616;28;20500;-65
2022/12/09 00:41:37;;;;;;;31.10;17.33;;;;;;;1.33;100.00;100589.25;5049716;28;20039;-66
2022/12/09 00:44:03;;;;;;;35.60;21.50;;;;;;;1.30;100.00;100585.09;5049603;28;20031;-66
2022/12/09 00:46:28;;;;;;;32.50;19.20;;;;;;;1.30;100.00;100591.19;5049760;28;20412;-66
2022/12/09 00:48:54;;;;;;;33.08;19.85;;;;;;;1.34;100.00;100598.78;5049816;28;20028;-66
2022/12/09 00:51:22;;;;;;;37.42;20.10;;;;;;;1.35;100.00;100598.63;5049457;28;20041;-66
2022/12/09 00:53:52;;;;;;;34.08;21.02;;;;;;;1.36;100.00;100594.19;5049813;28;20849;-66
2022/12/09 00:56:19;;;;;;;37.33;22.85;;;;;;;1.37;100.00;100595.88;5049725;28;20484;-66
2022/12/09 00:58:44;;;;;;;37.20;21.27;;;;;;;1.36;100.00;100588.94;5049260;28;20153;-66
2022/12/09 01:01:11;;;;;;;40.17;23.45;;;;;;;1.36;100.00;100588.94;5049474;28;20113;-66
2022/12/09 01:03:37;;;;;;;36.70;21.33;;;;;;;1.36;100.00;100589.78;5049605;28;20028;-66
2022/12/09 01:06:11;;;;;;;38.97;21.95;;;;;;;1.36;100.00;100586.31;5049640;28;20031;-66
2022/12/09 01:08:36;;;;;;;37.00;21.90;;;;;;;1.37;100.00;100586.19;5049497;28;20550;-66
2022/12/09 01:11:08;;;;;;;37.00;21.40;;;;;;;1.38;100.00;100592.28;5049507;28;20040;-66
2022/12/09 01:13:34;;;;;;;36.20;22.35;;;;;;;1.34;100.00;100580.38;5049546;28;20035;-66
2022/12/09 01:15:59;;;;;;;36.58;23.67;;;;;;;1.39;100.00;100596.53;5049573;28;20033;-68
2022/12/09 01:18:24;;;;;;;43.25;22.33;;;;;;;1.40;100.00;100595.59;5049344;28;20526;-68
2022/12/09 01:20:57;;;;;;;38.65;23.58;;;;;;;1.40;100.00;100592.97;5049566;28;20025;-68
2022/12/09 01:23:22;;;;;;;40.47;21.50;;;;;;;1.42;100.00;100594.47;5052702;28;20059;-68
2022/12/09 01:25:48;;;;;;;40.90;24.88;;;;;;;1.40;100.00;100585.91;5053349;28;20025;-68
2022/12/09 01:28:13;;;;;;;38.90;23.02;;;;;;;1.42;100.00;100594.47;5053149;28;20673;-68
2022/12/09 01:30:38;;;;;;;36.63;21.98;;;;;;;1.44;100.00;100600.41;5053312;28;20025;-68
2022/12/09 01:33:04;;;;;;;38.15;22.35;;;;;;;1.42;100.00;100591.84;5053104;28;20547;-69
2022/12/09 01:35:29;;;;;;;37.80;21.20;;;;;;;1.44;100.00;100602.19;5053029;28;20417;-69
2022/12/09 01:37:54;;;;;;;38.00;19.77;;;;;;;1.44;100.00;100605.69;5052890;28;20071;-69
2022/12/09 01:40:20;;;;;;;37.30;20.70;;;;;;;1.46;100.00;100597.63;5052561;28;21023;-69
2022/12/09 01:42:45;;;;;;;37.40;23.52;;;;;;;1.45;100.00;100601.25;5053024;28;20028;-69
2022/12/09 01:45:19;;;;;;;38.13;21.45;;;;;;;1.47;100.00;100600.13;5068546;28;20123;-69
2022/12/09 01:47:51;;;;;;;36.50;21.65;;;;;;;1.46;100.00;100608.97;5071996;28;20029;-69
2022/12/09 01:50:17;;;;;;;40.13;22.98;;;;;;;1.43;100.00;100595.28;5071941;28;20032;-69
2022/12/09 01:52:44;;;;;;;37.53;20.75;;;;;;;1.41;100.00;100599.84;5071922;28;20457;-69
2022/12/09 01:55:09;;;;;;;42.38;22.17;;;;;;;1.44;100.00;100599.56;5071765;28;20127;-69
2022/12/09 01:57:35;;;;;;;41.00;21.63;;;;;;;1.44;100.00;100600.41;5070661;28;20082;-69
2022/12/09 02:00:01;;;;;;;35.60;19.15;;;;;;;1.46;100.00;100600.25;5071828;28;20016;-69
2022/12/09 02:02:31;;;;;;;39.28;23.63;;;;;;;1.43;100.00;100600.56;5072037;28;20421;-69
2022/12/09 02:04:57;;;;;;;39.25;23.52;;;;;;;1.45;100.00;100604.69;5072023;28;20021;-69
2022/12/09 02:07:23;;;;;;;43.45;24.17;;;;;;;1.47;100.00;100607.19;5071588;28;20067;-69
2022/12/09 02:09:51;;;;;;;41.08;24.20;;;;;;;1.47;100.00;100604.56;5070382;28;20064;-69
2022/12/09 02:12:40;;;;;;;39.80;24.02;;;;;;;1.48;100.00;100600.94;5071648;28;20036;-69
2022/12/09 02:15:13;;;;;;;37.72;22.40;;;;;;;1.46;100.00;100597.63;5071599;28;20572;-69
2022/12/09 02:17:45;;;;;;;34.88;20.27;;;;;;;1.46;100.00;100606.34;5071606;28;20091;-69
2022/12/09 02:20:41;;;;;;;38.90;22.15;;;;;;;1.48;100.00;100603.56;5071320;28;20028;-69
2022/12/09 02:23:23;;;;;;;38.20;20.77;;;;;;;1.49;100.00;100599.97;5071160;28;20049;-69
2022/12/09 02:26:21;;;;;;;38.03;23.38;;;;;;;1.49;100.00;100605.22;5052209;28;20019;-69
2022/12/09 02:28:55;;;;;;;41.28;22.05;;;;;;;1.47;100.00;100601.94;5048032;28;20040;-69
2022/12/09 02:31:39;;;;;;;39.92;23.13;;;;;;;1.44;100.00;100595.16;5051978;28;20038;-69
2022/12/09 02:34:13;;;;;;;43.88;25.35;;;;;;;1.45;100.00;100601.25;5052187;28;20048;-69
2022/12/09 02:37:09;;;;;;;41.67;23.25;;;;;;;1.47;100.00;100607.19;5051700;28;20051;-69
2022/12/09 02:39:56;;;;;;;42.63;25.05;;;;;;;1.48;100.00;100604.41;5051669;28;20039;-69
2022/12/09 02:42:24;;;;;;;38.83;23.55;;;;;;;1.39;100.00;100591.28;5051283;28;20060;-69
2022/12/09 02:44:51;;;;;;;40.88;24.33;;;;;;;1.46;100.00;100600.25;5051523;28;20108;-69
2022/12/09 02:47:20;;;;;;;40.78;23.95;;;;;;;1.46;100.00;100602.88;5051386;28;20033;-69
2022/12/09 02:49:49;;;;;;;41.88;25.45;;;;;;;1.43;100.00;100597.91;5070631;28;20030;-69
2022/12/09 02:52:16;;;;;;;39.42;23.50;;;;;;;1.44;100.00;100599.56;5070559;28;20020;-69
2022/12/09 02:54:42;;;;;;;46.03;28.90;;;;;;;1.45;100.00;100593.34;5070448;28;20661;-69
2022/12/09 02:57:15;;;;;;;43.60;25.35;;;;;;;1.44;100.00;100586.44;5070305;28;20033;-69
2022/12/09 02:59:40;;;;;;;42.28;26.20;;;;;;;1.42;100.00;100586.59;5070336;28;20059;-69
2022/12/09 03:02:20;;;;;;;37.97;23.02;;;;;;;1.43;100.00;100584.78;5070187;28;20429;-69
2022/12/09 03:05:12;;;;;;;41.53;25.73;;;;;;;1.43;100.00;100587.41;5070545;28;20047;-69
2022/12/09 03:07:43;;;;;;;44.65;26.60;;;;;;;1.38;100.00;100579.13;5051602;28;20047;-69
2022/12/09 03:10:20;;;;;;;41.50;24.48;;;;;;;1.38;100.00;100584.38;5070426;28;20934;-69
2022/12/09 03:13:00;;;;;;;47.00;23.17;;;;;;;1.38;100.00;100585.22;5070338;28;20028;-69
2022/12/09 03:15:29;;;;;;;63.00;26.25;;;;;;;1.38;100.00;100582.59;5070299;28;20593;-69
2022/12/09 03:17:57;;;;;;;71.32;28.95;;;;;;;1.38;100.00;100585.22;5070374;28;20031;-69
2022/12/09 03:20:27;;;;;;;48.05;28.27;;;;;;;1.37;100.00;100580.13;5070214;28;20024;-69
2022/12/09 03:22:58;;;;;;;48.35;29.10;;;;;;;1.31;100.00;100571.84;5069990;28;20056;-69
2022/12/09 03:25:33;;;;;;;61.00;28.90;;;;;;;1.35;100.00;100571.53;5070016;28;20020;-69
2022/12/09 03:28:03;;;;;;;47.67;27.10;;;;;;;1.35;100.00;100571.53;5070327;28;20391;-69
2022/12/09 03:30:31;;;;;;;51.25;29.42;;;;;;;1.32;100.00;100570.03;5050598;28;20023;-69
2022/12/09 03:32:57;;;;;;;49.88;29.40;;;;;;;1.33;100.00;100569.03;5050654;28;20110;-70
2022/12/09 03:35:28;;;;;;;53.63;28.60;;;;;;;1.35;100.00;100569.75;5050714;28;20500;-69
2022/12/09 03:37:54;;;;;;;56.33;31.02;;;;;;;1.35;100.00;100568.91;5069724;28;20574;-69
2022/12/09 03:40:25;;;;;;;45.72;24.90;;;;;;;1.32;100.00;100559.53;5069604;28;20043;-69
2022/12/09 03:43:00;;;;;;;51.58;29.15;;;;;;;1.34;100.00;100569.88;5069665;28;20039;-69
2022/12/09 03:45:27;;;;;;;46.92;26.15;;;;;;;1.33;100.00;100563.78;5069005;28;20036;-69
2022/12/09 03:47:53;;;;;;;47.20;24.88;;;;;;;1.34;100.00;100560.22;5069600;28;20586;-69
2022/12/09 03:50:21;;;;;;;53.67;26.70;;;;;;;1.34;100.00;100564.63;5069332;28;20036;-69
2022/12/09 03:53:01;;;;;;;48.63;26.60;;;;;;;1.33;100.00;100558.53;5069390;28;20174;-69
2022/12/09 03:55:38;;;;;;;48.75;27.40;;;;;;;1.28;100.00;100556.38;5069109;28;20024;-69
2022/12/09 03:58:05;;;;;;;47.30;25.42;;;;;;;1.31;100.00;100561.31;5069414;28;20028;-69
2022/12/09 04:00:35;;;;;;;51.28;27.88;;;;;;;1.31;100.00;100563.94;5069460;28;20115;-69
2022/12/09 04:03:00;;;;;;;50.75;26.98;;;;;;;1.30;100.00;100559.66;5069377;28;20020;-69
2022/12/09 04:05:25;;;;;;;50.95;26.52;;;;;;;1.28;100.00;100566.03;5069472;28;20036;-69
2022/12/09 04:07:51;;;;;;;50.63;26.60;;;;;;;1.27;100.00;100564.38;5050514;28;20066;-69
2022/12/09 04:10:16;;;;;;;48.08;27.35;;;;;;;1.24;100.00;100565.50;5069306;28;20033;-69
2022/12/09 04:12:41;;;;;;;45.75;27.92;;;;;;;1.24;100.00;100562.03;5069338;28;20028;-69
2022/12/09 04:15:08;;;;;;;51.70;24.25;;;;;;;1.15;100.00;100547.94;5069386;28;20024;-69
2022/12/09 04:17:34;;;;;;;50.78;26.95;;;;;;;1.15;100.00;100553.19;5069281;28;20039;-69
2022/12/09 04:19:59;;;;;;;49.28;25.77;;;;;;;1.15;100.00;100555.81;5069250;28;20036;-69
2022/12/09 04:22:24;;;;;;;46.80;26.50;;;;;;;1.15;100.00;100550.56;5069217;28;20501;-69
2022/12/09 04:24:50;;;;;;;51.45;28.77;;;;;;;1.16;100.00;100546.16;5068970;28;20384;-69
2022/12/09 04:27:15;;;;;;;52.22;28.20;;;;;;;1.13;100.00;100546.44;5059059;28;20543;-69
2022/12/09 04:29:41;;;;;;;57.47;25.92;;;;;;;1.14;100.00;100548.94;5048697;28;20377;-69
2022/12/09 04:32:06;;;;;;;49.45;27.13;;;;;;;1.14;100.00;100555.97;5059212;28;20029;-69
2022/12/09 04:34:32;;;;;;;44.17;23.90;;;;;;;1.11;100.00;100554.47;5069206;28;20028;-69
2022/12/09 04:36:58;;;;;;;51.10;27.23;;;;;;;1.12;100.00;100547.41;5069071;28;20099;-69
2022/12/09 04:39:23;;;;;;;54.15;27.70;;;;;;;1.13;100.00;100551.69;5068546;28;20120;-69
2022/12/09 04:41:49;;;;;;;47.22;27.80;;;;;;;1.08;100.00;100539.00;5068518;28;20033;-69
2022/12/09 04:44:14;;;;;;;47.33;25.13;;;;;;;1.12;100.00;100540.34;5067433;28;20039;-69
2022/12/09 04:46:39;;;;;;;51.95;27.27;;;;;;;1.15;100.00;100545.31;5068322;28;20040;-69
2022/12/09 04:49:05;;;;;;;46.38;25.90;;;;;;;1.10;100.00;100537.03;5068513;28;20034;-69
2022/12/09 04:51:30;;;;;;;46.92;26.40;;;;;;;1.09;100.00;100545.91;5068553;28;20487;-69
2022/12/09 04:53:55;;;;;;;52.30;29.40;;;;;;;1.04;100.00;100542.88;5065711;28;20062;-69
2022/12/09 04:56:21;;;;;;;50.72;25.35;;;;;;;1.03;100.00;100552.56;5052561;28;20468;-69
2022/12/09 04:58:48;;;;;;;54.85;31.25;;;;;;;1.01;100.00;100546.59;5072827;28;20037;-69
2022/12/09 05:01:20;;;;;;;50.15;23.02;;;;;;;1.04;100.00;100548.13;5072615;28;20029;-69
2022/12/09 05:03:50;;;;;;;46.15;26.75;;;;;;;1.02;100.00;100548.28;5072841;28;20016;-69
2022/12/09 05:06:16;;;;;;;50.30;26.23;;;;;;;1.01;100.00;100554.50;5072751;28;20036;-69
2022/12/09 05:08:42;;;;;;;48.42;25.95;;;;;;;0.94;100.00;100542.88;5072750;28;20123;-69
2022/12/09 05:11:08;;;;;;;51.92;27.00;;;;;;;1.00;100.00;100546.78;5059931;28;20170;-69
2022/12/09 05:13:33;;;;;;;44.00;24.88;;;;;;;1.01;100.00;100551.88;5053532;28;20047;-69
2022/12/09 05:16:07;;;;;;;44.30;26.65;;;;;;;1.04;100.00;100553.38;5053462;28;20572;-69
2022/12/09 05:18:33;;;;;;;46.85;25.38;;;;;;;1.04;100.00;100550.75;5053531;28;20025;-69
2022/12/09 05:20:58;;;;;;;50.25;25.65;;;;;;;1.02;100.00;100552.69;5053582;28;20070;-69
2022/12/09 05:23:24;;;;;;;50.67;28.60;;;;;;;1.02;100.00;100547.44;5053127;28;20385;-69
2022/12/09 05:25:50;;;;;;;53.75;28.10;;;;;;;1.02;100.00;100556.16;5053206;28;20120;-69
2022/12/09 05:28:15;;;;;;;50.95;28.15;;;;;;;1.00;100.00;100544.97;5053365;28;20025;-69
2022/12/09 05:30:41;;;;;;;52.15;27.67;;;;;;;1.00;100.00;100549.41;5053296;28;20037;-69
2022/12/09 05:33:06;;;;;;;48.60;26.52;;;;;;;0.99;100.00;100543.28;5053286;28;20017;-69
2022/12/09 05:35:31;;;;;;;56.20;29.45;;;;;;;0.99;100.00;100545.09;5053105;28;20099;-69
2022/12/09 05:37:57;;;;;;;52.53;29.23;;;;;;;0.99;100.00;100551.16;5053173;28;20115;-69
2022/12/09 05:40:22;;;;;;;47.05;27.45;;;;;;;1.01;100.00;100540.53;5052544;28;20056;-69
2022/12/09 05:42:48;;;;;;;68.07;26.00;;;;;;;1.02;100.00;100540.41;5052792;28;20032;-69
2022/12/09 05:45:13;;;;;;;48.78;26.67;;;;;;;0.98;100.00;100541.66;5051467;28;20033;-69
2022/12/09 05:47:39;;;;;;;43.95;25.23;;;;;;;0.95;100.00;100535.88;5052275;28;20029;-69
2022/12/09 05:50:06;;;;;;;46.17;23.92;;;;;;;0.92;100.00;100542.22;5052444;28;20029;-69
2022/12/09 05:52:34;;;;;;;49.80;24.85;;;;;;;0.90;100.00;100544.16;5052667;28;20056;-69
2022/12/09 05:54:59;;;;;;;49.40;27.38;;;;;;;0.87;100.00;100545.28;5052347;28;20540;-69
2022/12/09 05:57:24;;;;;;;48.53;27.08;;;;;;;0.85;100.00;100547.19;5052034;28;20032;-69
2022/12/09 05:59:50;;;;;;;56.78;29.33;;;;;;;0.84;100.00;100542.94;5052434;28;20037;-69
2022/12/09 06:02:15;;;;;;;53.17;26.30;;;;;;;0.81;100.00;100537.97;5052326;28;20116;-69
2022/12/09 06:04:41;;;;;;;47.28;28.17;;;;;;;0.83;100.00;100548.31;5052296;28;20098;-70
2022/12/09 06:07:06;;;;;;;58.58;28.92;;;;;;;0.83;100.00;100548.31;5052004;28;20110;-69
2022/12/09 06:09:32;;;;;;;56.00;29.77;;;;;;;0.78;100.00;100542.66;5052083;28;20044;-69
2022/12/09 06:11:58;;;;;;;54.25;26.95;;;;;;;0.78;100.00;100550.53;5052468;28;20048;-69
2022/12/09 06:14:23;;;;;;;54.92;26.05;;;;;;;0.75;100.00;100549.00;5051094;28;20442;-69
2022/12/09 06:16:48;;;;;;;48.72;25.50;;;;;;;0.75;100.00;100550.81;5052405;28;20036;-69
2022/12/09 06:19:14;;;;;;;52.95;24.70;;;;;;;0.75;100.00;100549.00;5052477;28;20032;-69
2022/12/09 06:21:40;;;;;;;55.25;28.77;;;;;;;0.78;100.00;100553.16;5052365;28;20040;-69
2022/12/09 06:24:06;;;;;;;46.75;24.23;;;;;;;0.79;100.00;100552.19;5051715;28;20044;-69
2022/12/09 06:26:32;;;;;;;45.20;22.98;;;;;;;0.81;100.00;100551.09;5052000;28;20047;-69
2022/12/09 06:28:58;;;;;;;45.95;23.92;;;;;;;0.81;100.00;100548.47;5052038;28;20129;-69
2022/12/09 06:31:24;;;;;;;48.63;28.63;;;;;;;0.81;100.00;100551.09;5069844;28;20052;-69
2022/12/09 06:33:50;;;;;;;52.75;25.88;;;;;;;0.79;100.00;100555.66;5051696;28;20036;-70
2022/12/09 06:36:15;;;;;;;46.80;24.15;;;;;;;0.77;100.00;100556.75;5051601;28;20062;-69
2022/12/09 06:38:41;;;;;;;46.20;26.80;;;;;;;0.79;100.00;100550.41;5050335;28;20060;-70
2022/12/09 06:41:11;;;;;;;51.92;22.40;;;;;;;0.81;100.00;100558.13;5051413;28;20037;-70
2022/12/09 06:43:37;;;;;;;42.03;22.88;;;;;;;0.82;100.00;100557.16;5051319;28;20052;-69
2022/12/09 06:46:09;;;;;;;43.03;24.58;;;;;;;0.81;100.00;100558.13;5055834;28;20476;-70
2022/12/09 06:48:34;;;;;;;48.58;23.30;;;;;;;0.81;100.00;100558.13;5070387;28;20056;-70
2022/12/09 06:51:00;;;;;;;58.33;27.67;;;;;;;0.80;100.00;100551.22;5070433;28;20064;-70
2022/12/09 06:53:25;;;;;;;40.53;24.83;;;;;;;0.77;100.00;100554.94;5062441;28;20033;-70
2022/12/09 06:55:50;;;;;;;43.15;23.65;;;;;;;0.76;100.00;100555.09;5051072;28;20040;-69
2022/12/09 06:58:16;;;;;;;47.00;24.30;;;;;;;0.73;100.00;100547.50;5051163;28;20037;-69
2022/12/09 07:00:41;;;;;;;44.05;26.48;;;;;;;0.73;100.00;100550.94;5051106;28;20025;-70
2022/12/09 07:03:06;;;;;;;40.28;24.08;;;;;;;0.70;100.00;100548.59;5063305;28;20476;-70
2022/12/09 07:05:32;;;;;;;45.97;26.58;;;;;;;0.71;100.00;100558.16;5070130;28;20093;-69
2022/12/09 07:07:57;;;;;;;41.28;23.73;;;;;;;0.71;100.00;100557.28;5069995;28;20079;-69
2022/12/09 07:10:22;;;;;;;53.40;28.67;;;;;;;0.70;100.00;100560.91;5070393;28;20028;-69
2022/12/09 07:12:48;;;;;;;42.40;22.02;;;;;;;0.69;100.00;100557.44;5070408;28;20036;-70
2022/12/09 07:15:13;;;;;;;44.85;25.48;;;;;;;0.69;100.00;100554.81;5070355;28;20372;-70
2022/12/09 07:17:38;;;;;;;44.22;26.23;;;;;;;0.68;100.00;100561.03;5070144;28;20144;-69
2022/12/09 07:20:04;;;;;;;43.42;25.13;;;;;;;0.66;100.00;100560.38;5069195;28;20039;-69
2022/12/09 07:22:32;;;;;;;43.45;23.77;;;;;;;0.62;100.00;100557.16;5070142;28;20488;-69
2022/12/09 07:24:57;;;;;;;43.88;26.70;;;;;;;0.56;100.00;100549.88;5059237;28;20137;-69
2022/12/09 07:27:23;;;;;;;43.45;24.48;;;;;;;0.54;100.00;100557.03;5049413;28;20960;-69
2022/12/09 07:29:48;;;;;;;50.03;26.55;;;;;;;0.48;100.00;100568.09;5050811;28;20037;-69
2022/12/09 07:32:13;;;;;;;43.42;26.92;;;;;;;0.40;100.00;100571.41;5051000;28;20094;-69
2022/12/09 07:34:39;;;;;;;42.80;25.40;;;;;;;0.32;100.00;100568.66;5050871;28;20039;-68
2022/12/09 07:37:04;;;;;;;40.05;20.38;;;;;;;0.28;100.00;100569.06;5050807;28;20128;-69
2022/12/09 07:39:30;;;;;;;39.40;21.27;;;;;;;0.21;100.00;100572.22;5050066;28;20025;-69
2022/12/09 07:42:02;;;;;;;40.95;21.02;;;;;;;0.22;100.00;100584.38;5086547;27;20393;-71
2022/12/09 07:44:27;;;;;;;41.67;25.17;;;;;;;0.21;100.00;100576.66;5086556;28;20032;-71
2022/12/09 07:46:54;;;;;;;45.78;25.90;;;;;;;0.31;100.00;100587.13;5086599;28;20051;-71
2022/12/09 07:49:19;;;;;;;44.03;23.02;;;;;;;0.35;100.00;100584.09;5086527;28;20032;-71
2022/12/09 07:51:45;;;;;;;42.63;22.67;;;;;;;0.38;100.00;100577.75;5086514;28;20031;-70
2022/12/09 07:54:15;;;;;;;42.45;23.52;;;;;;;0.41;100.00;100577.47;5086307;28;20038;-71
2022/12/09 07:56:41;;;;;;;43.20;22.90;;;;;;;0.38;100.00;100590.88;5086425;28;20532;-69
2022/12/09 07:59:08;;;;;;;44.30;22.73;;;;;;;0.36;100.00;100598.03;5086282;28;20028;-71
2022/12/09 08:01:35;;;;;;;46.20;25.45;;;;;;;0.38;100.00;100596.94;5086158;28;20031;-71
2022/12/09 08:04:01;;;;;;;42.03;24.40;;;;;;;0.41;100.00;100590.59;5086120;28;20051;-71
2022/12/09 08:06:28;;;;;;;42.55;23.13;;;;;;;0.36;100.00;100588.38;5085910;28;20036;-71
2022/12/09 08:08:57;;;;;;;40.45;22.80;;;;;;;0.40;100.00;100584.53;5085756;28;20050;-71
2022/12/09 08:11:24;;;;;;;47.47;25.33;;;;;;;0.40;100.00;100586.31;5086588;28;20031;-70
2022/12/09 08:13:51;;;;;;;42.90;22.80;;;;;;;0.34;100.00;100590.34;5086578;28;20114;-71
2022/12/09 08:16:20;;;;;;;46.17;26.27;;;;;;;0.31;100.00;100593.19;5086478;28;20036;-71
2022/12/09 08:18:46;;;;;;;44.83;23.45;;;;;;;0.27;100.00;100588.38;5085827;28;20032;-70
2022/12/09 08:21:15;;;;;;;46.00;24.90;;;;;;;0.20;100.00;100588.91;5084388;28;20434;-70
2022/12/09 08:23:41;;;;;;;44.78;23.13;;;;;;;0.12;100.00;100578.28;5086162;28;20024;-70
2022/12/09 08:26:08;;;;;;;41.00;23.75;;;;;;;0.18;100.00;100593.50;5086383;28;20395;-70
2022/12/09 08:28:33;;;;;;;46.25;24.23;;;;;;;0.20;100.00;100594.16;5086207;28;20038;-70
2022/12/09 08:31:06;;;;;;;44.65;26.90;;;;;;;0.20;100.00;100598.56;5084923;28;20028;-71
2022/12/09 08:33:33;;;;;;;43.22;24.65;;;;;;;0.18;100.00;100600.50;5086172;28;20899;-71
2022/12/09 08:35:59;;;;;;;36.70;19.15;;;;;;;0.21;100.00;100597.63;5084036;28;20046;-71
2022/12/09 08:38:24;;;;;;;45.83;24.52;;;;;;;0.25;100.00;100595.56;5079613;28;20024;-71
2022/12/09 08:40:49;;;;;;;40.08;21.70;;;;;;;0.28;100.00;100598.72;5078263;28;20098;-71
2022/12/09 08:43:15;;;;;;;40.35;22.17;;;;;;;0.34;100.00;100589.47;5078696;28;20020;-71
2022/12/09 08:45:40;;;;;;;46.20;24.23;;;;;;;0.33;100.00;100588.66;5078675;28;20024;-71
2022/12/09 08:48:06;;;;;;;43.50;25.30;;;;;;;0.32;100.00;100591.44;5078831;28;20023;-72
2022/12/09 08:50:32;;;;;;;47.00;26.23;;;;;;;0.31;100.00;100580.09;5079387;28;20024;-72
2022/12/09 08:52:57;;;;;;;47.85;22.75;;;;;;;0.34;100.00;100584.22;5071708;28;20032;-73
2022/12/09 08:55:23;;;;;;;48.10;26.42;;;;;;;0.25;100.00;100577.19;5072286;28;20040;-72
2022/12/09 08:57:48;;;;;;;45.03;24.15;;;;;;;0.33;100.00;100593.06;5072355;28;20154;-71
2022/12/09 09:00:14;;;;;;;47.17;26.23;;;;;;;0.33;100.00;100577.34;5072191;28;20115;-71
2022/12/09 09:02:40;;;;;;;47.00;26.38;;;;;;;0.35;100.00;100586.72;5071922;28;20028;-72
2022/12/09 09:05:05;;;;;;;39.80;22.05;;;;;;;0.42;100.00;100587.03;5071666;28;20036;-71
2022/12/09 09:07:31;;;;;;;47.30;23.98;;;;;;;0.46;100.00;100587.56;5071799;28;20064;-71
2022/12/09 09:09:56;;;;;;;39.92;22.80;;;;;;;0.49;100.00;100598.59;5071837;28;20066;-71
2022/12/09 09:12:21;;;;;;;45.17;25.67;;;;;;;0.44;100.00;100596.38;5071723;28;20037;-71
2022/12/09 09:14:47;;;;;;;43.47;23.38;;;;;;;0.48;100.00;100604.00;5071651;28;20487;-71
2022/12/09 09:17:12;;;;;;;43.47;23.95;;;;;;;0.50;100.00;100602.06;5071579;28;20025;-71
2022/12/09 09:19:38;;;;;;;45.10;22.98;;;;;;;0.53;100.00;100607.06;5071412;28;20032;-71
2022/12/09 09:22:03;;;;;;;43.53;22.55;;;;;;;0.56;100.00;100604.16;5071618;28;20036;-71
2022/12/09 09:24:29;;;;;;;42.45;23.83;;;;;;;0.63;100.00;100600.84;5071367;28;20039;-71
2022/12/09 09:26:55;;;;;;;46.65;24.15;;;;;;;0.61;100.00;100594.06;5071345;28;20040;-71
2022/12/09 09:29:21;;;;;;;38.47;20.50;;;;;;;0.69;100.00;100612.56;5071514;28;20056;-71
2022/12/09 09:31:48;;;;;;;37.92;21.83;;;;;;;0.70;100.00;100606.34;5071444;28;20028;-71
2022/12/09 09:34:16;;;;;;;43.35;21.00;;;;;;;0.75;100.00;100613.81;5071451;28;20483;-71
2022/12/09 09:36:42;;;;;;;41.15;22.95;;;;;;;0.76;100.00;100621.56;5071364;28;20039;-71
2022/12/09 09:39:08;;;;;;;38.85;20.70;;;;;;;0.81;100.00;100624.59;5071291;28;20604;-71
2022/12/09 09:41:45;;;;;;;40.15;20.33;;;;;;;0.86;100.00;100618.91;5070986;28;20059;-71
2022/12/09 09:44:31;;;;;;;48.58;25.02;;;;;;;0.92;100.00;100620.13;5071137;28;20028;-71
2022/12/09 09:46:59;;;;;;;43.38;22.13;;;;;;;0.94;100.00;100599.81;5071210;28;20035;-71
2022/12/09 09:49:36;;;;;;;41.45;21.70;;;;;;;1.06;100.00;100614.47;5071266;28;20035;-71
2022/12/09 09:52:16;;;;;;;44.03;22.20;;;;;;;1.09;100.00;100606.31;5071060;28;20028;-71
2022/12/09 09:54:42;;;;;;;45.55;23.77;;;;;;;1.10;100.00;100605.31;5070932;28;20119;-71
2022/12/09 09:57:28;;;;;;;50.30;25.70;;;;;;;1.01;100.00;100604.38;5070814;28;20108;-71
2022/12/09 10:00:05;;;;;;;37.35;20.65;;;;;;;0.96;100.00;100601.34;5070832;28;20035;-71
2022/12/09 10:02:52;;;;;;;40.15;22.65;;;;;;;1.02;100.00;100610.44;5070775;28;20056;-71
2022/12/09 10:05:30;;;;;;;43.85;23.15;;;;;;;1.08;100.00;100612.53;5070084;28;20021;-71
2022/12/09 10:08:16;;;;;;;45.58;23.63;;;;;;;1.12;100.00;100606.00;5070733;28;20021;-71
2022/12/09 10:11:00;;;;;;;42.17;22.20;;;;;;;1.02;100.00;100603.44;5070112;28;20040;-71
2022/12/09 10:13:55;;;;;;;43.47;22.67;;;;;;;0.90;100.00;100601.09;5070620;28;20036;-71
2022/12/09 10:16:29;;;;;;;39.10;20.77;;;;;;;0.80;100.00;100607.16;5070670;28;20021;-71
2022/12/09 10:19:14;;;;;;;44.45;21.10;;;;;;;0.86;100.00;100600.53;5070396;28;20028;-71
2022/12/09 10:21:41;;;;;;;44.83;24.92;;;;;;;0.92;100.00;100607.88;5070225;28;20031;-71
2022/12/09 10:24:27;;;;;;;48.90;22.23;;;;;;;1.01;100.00;100600.94;5070190;28;20036;-71
2022/12/09 10:27:03;;;;;;;41.58;22.20;;;;;;;1.04;100.00;100613.78;5070306;28;20054;-71
2022/12/09 10:29:54;;;;;;;41.22;21.05;;;;;;;1.11;100.00;100603.56;5070195;28;20034;-71
2022/12/09 10:32:21;;;;;;;44.58;23.75;;;;;;;1.12;100.00;100606.00;5066063;28;20450;-71
2022/12/09 10:34:47;;;;;;;43.22;22.65;;;;;;;1.18;100.00;100602.84;5068718;28;20387;-71
2022/12/09 10:37:20;;;;;;;41.05;22.10;;;;;;;1.23;100.00;100603.25;5070148;28;20086;-71
2022/12/09 10:39:46;;;;;;;47.42;24.77;;;;;;;1.21;100.00;100594.69;5068584;28;20032;-71
2022/12/09 10:45:07;;;;;;;39.92;22.27;;;;;;;1.14;100.00;100590.13;5069893;28;20444;-71
2022/12/09 10:47:32;;;;;;;40.75;22.73;;;;;;;1.13;100.00;100602.44;5069942;28;20036;-71
2022/12/09 10:49:58;;;;;;;47.15;24.70;;;;;;;1.12;100.00;100600.75;5069756;28;20082;-69
2022/12/09 10:52:28;;;;;;;39.60;20.45;;;;;;;1.15;100.00;100605.72;5069506;28;20054;-71
2022/12/09 10:54:54;;;;;;;42.75;20.33;;;;;;;1.18;100.00;100608.09;5069708;28;20448;-70
2022/12/09 10:57:28;;;;;;;40.00;21.55;;;;;;;1.13;100.00;100602.44;5069753;28;20052;-69
2022/12/09 11:00:18;;;;;;;41.72;20.67;;;;;;;1.11;100.00;100600.91;5069386;28;20039;-69
2022/12/09 11:02:53;;;;;;;40.20;20.02;;;;;;;1.11;100.00;100598.28;5069770;28;20078;-70
2022/12/09 11:05:18;;;;;;;50.42;24.73;;;;;;;1.12;100.00;100595.50;5069701;28;20082;-69
2022/12/09 11:07:48;;;;;;;42.22;20.38;;;;;;;1.11;100.00;100593.88;5069657;28;20040;-69
2022/12/09 11:10:20;;;;;;;43.78;23.92;;;;;;;1.16;100.00;100585.56;5069445;28;20104;-69
2022/12/09 11:12:49;;;;;;;;;;;;;;;1.23;100.00;100594.50;5070050;28;20033;-69
2022/12/09 11:15:29;;;;;;;45.40;22.15;;;;;;;1.20;100.00;100594.81;5069270;28;19916;-70
2022/12/09 11:18:24;;;;;;;43.33;20.30;;;;;;;1.14;100.00;100587.50;5069432;28;20032;-69